Portada
METAR-TAF:

METAR-TAF

Aeroports :

Aeroport Internacional de Maputo

Maputo, Moçambic

latitud: 25-55S, longitud: 032-34E, altitud: 39 m

Observació

L'informe es va fer fa 25 minuts, a les 09:00 UTC
Vent 9 kt del Sud/Sud-Est
Temperatura 26°C
Humitat 70%
Pressió 1024 hPa
Visibilitat 10 km o més
Cel ennuvolat a una alçada de 2000 ft
Núvols disperses a una alçada de 10000 ft

METAR: FQMA 240900Z 15009KT 9999 BKN020 SCT100 26/20 Q1024 NOSIG

Hora: 11:25 (09:25 UTC)

Pronòstic

L'informe es va fer fa 5 hores i 25 minuts, a les 04:00 UTC
Pronòstic vàlid del 24 a les 06 UTC al 25 a les 12 UTC
Vent 10 kt del Nord/Nord-Oest
Visibilitat 10 km o més
Escasses núvols a una alçada de 2000 ft
Evolucionant progressivament
l' 24 a les 12 UTC al 24 a les 14 UTC
Vent 10 kt del Est
Evolucionant progressivament
l' 24 a les 18 UTC al 24 a les 20 UTC
Vent 10 kt del Nord/Nord-Est

TAF: FQMA 240400Z 2406/2512 34010KT 9999 FEW020 TX31/2413Z TN13/2503Z BECMG 2412/2414 08010KT BECMG 2418/2420 02010KT

Observacions i pronòstics meteorològics de més de 4000 aeroports (METAR i TAF).

Les estacions disponibles són els punts grocs i vermells al mapa.

Posi el ratolí al punt desitjat per veure el nom de l'estació.

Feu clic per veure les observacions i els pronòstics meteorològics.

Per canviar el mapa: feu clic els botons verds amb una creu de color negre per apropar; al botó verd amb un guió per allunyar la imatge; o en les fletxes verdes per a mapes adjacents.


METAR-TAF: